createdAt,value
2018-06-11T00:01:05.296Z,19.30
2018-06-11T00:03:32.845Z,19.03
2018-06-11T00:06:00.826Z,20.10
2018-06-11T00:08:28.979Z,19.60
2018-06-11T00:10:56.561Z,18.73
2018-06-11T00:13:24.201Z,19.10
2018-06-11T00:15:52.637Z,18.87
2018-06-11T00:18:20.284Z,19.73
2018-06-11T00:20:47.895Z,20.37
2018-06-11T00:23:15.489Z,20.73
2018-06-11T00:25:43.181Z,20.03
2018-06-11T00:28:10.859Z,19.67
2018-06-11T00:30:38.398Z,20.10
2018-06-11T00:33:05.985Z,19.93
2018-06-11T00:35:33.545Z,20.00
2018-06-11T00:38:01.406Z,20.80
2018-06-11T00:40:29.485Z,19.73
2018-06-11T00:42:57.057Z,20.63
2018-06-11T00:45:24.658Z,20.70
2018-06-11T00:47:52.241Z,21.23
2018-06-11T00:50:19.797Z,20.80
2018-06-11T00:52:47.361Z,21.50
2018-06-11T00:55:14.932Z,22.43
2018-06-11T00:57:42.529Z,20.87
2018-06-11T01:00:10.294Z,22.20
2018-06-11T01:02:37.882Z,23.67
2018-06-11T01:05:05.516Z,21.07
2018-06-11T01:07:33.570Z,22.50
2018-06-11T01:10:01.134Z,25.37
2018-06-11T01:12:28.769Z,22.90
2018-06-11T01:14:56.485Z,24.23
2018-06-11T01:17:24.044Z,23.77
2018-06-11T01:19:52.217Z,24.87
2018-06-11T01:22:19.942Z,23.90
2018-06-11T01:24:47.525Z,24.50
2018-06-11T01:27:15.131Z,24.37
2018-06-11T01:29:42.780Z,25.07
2018-06-11T01:32:10.313Z,25.83
2018-06-11T01:34:37.900Z,24.77
2018-06-11T01:37:05.630Z,25.00
2018-06-11T01:39:33.213Z,24.27
2018-06-11T01:42:00.811Z,23.73
2018-06-11T01:44:28.719Z,24.20
2018-06-11T01:46:56.276Z,23.93
2018-06-11T01:49:23.909Z,24.80
2018-06-11T01:51:51.454Z,25.00
2018-06-11T01:54:19.026Z,24.37
2018-06-11T01:56:46.614Z,24.57
2018-06-11T01:59:14.175Z,24.40
2018-06-11T02:01:41.814Z,24.37
2018-06-11T02:04:09.433Z,26.17
2018-06-11T02:06:37.008Z,25.07
2018-06-11T02:09:06.430Z,24.67
2018-06-11T02:11:34.129Z,26.30
2018-06-11T02:14:02.737Z,26.63
2018-06-11T02:16:30.337Z,26.40
2018-06-11T02:18:58.158Z,25.47
2018-06-11T02:21:25.733Z,26.00
2018-06-11T02:23:53.305Z,27.13
2018-06-11T02:26:20.862Z,27.73
2018-06-11T02:28:48.450Z,27.57
2018-06-11T02:31:16.205Z,25.90
2018-06-11T02:33:43.812Z,27.40
2018-06-11T02:36:11.377Z,27.37
2018-06-11T02:38:38.990Z,28.00
2018-06-11T02:41:06.628Z,28.17
2018-06-11T02:43:34.255Z,27.30
2018-06-11T02:46:01.812Z,27.90
2018-06-11T02:48:29.533Z,28.53
2018-06-11T02:50:57.365Z,29.33
2018-06-11T02:53:24.917Z,30.37
2018-06-11T02:55:52.581Z,28.63
2018-06-11T02:58:20.153Z,28.57
2018-06-11T03:00:47.757Z,30.47
2018-06-11T03:03:15.366Z,29.03
2018-06-11T03:05:42.946Z,30.37
2018-06-11T03:08:10.800Z,29.70
2018-06-11T03:10:38.369Z,29.93
2018-06-11T03:13:05.933Z,29.20
2018-06-11T03:15:33.572Z,31.33
2018-06-11T03:18:01.131Z,29.67
2018-06-11T03:20:28.711Z,30.07
2018-06-11T03:22:56.390Z,30.17
2018-06-11T03:25:24.189Z,29.87
2018-06-11T03:27:51.792Z,29.40
2018-06-11T03:30:19.496Z,31.03
2018-06-11T03:32:47.317Z,30.03
2018-06-11T03:35:14.877Z,30.70
2018-06-11T03:37:42.488Z,30.53
2018-06-11T03:40:10.073Z,30.67
2018-06-11T03:42:37.644Z,30.53
2018-06-11T03:45:05.216Z,31.17
2018-06-11T03:47:32.793Z,31.97
2018-06-11T03:50:00.390Z,30.43
2018-06-11T03:52:28.189Z,31.63
2018-06-11T03:54:56.054Z,31.87
2018-06-11T03:57:23.617Z,30.83
2018-06-11T03:59:51.251Z,31.60
2018-06-11T04:02:19.149Z,30.90
2018-06-11T04:04:46.721Z,31.47
2018-06-11T04:07:14.361Z,31.43
2018-06-11T04:09:41.901Z,31.20
2018-06-11T04:12:09.466Z,29.47
2018-06-11T04:14:37.049Z,31.67
2018-06-11T04:17:04.660Z,31.17
2018-06-11T04:19:32.295Z,32.03
2018-06-11T04:22:03.197Z,31.13
2018-06-11T04:24:30.753Z,32.00
2018-06-11T04:26:58.317Z,31.83
2018-06-11T04:29:26.009Z,31.43
2018-06-11T04:31:53.582Z,31.47
2018-06-11T04:34:21.309Z,30.70
2018-06-11T04:36:48.990Z,32.40
2018-06-11T04:39:16.561Z,30.80
2018-06-11T04:41:44.157Z,29.93
2018-06-11T04:44:11.701Z,30.10
2018-06-11T04:46:39.340Z,28.83
2018-06-11T04:49:07.021Z,28.67
2018-06-11T04:51:34.657Z,28.63
2018-06-11T04:54:02.229Z,28.53
2018-06-11T04:56:29.815Z,28.63
2018-06-11T04:58:57.380Z,30.97
2018-06-11T05:01:24.994Z,29.60
2018-06-11T05:03:52.524Z,28.83
2018-06-11T05:06:20.090Z,28.73
2018-06-11T05:08:47.753Z,29.93
2018-06-11T05:11:15.313Z,31.47
2018-06-11T05:13:48.864Z,29.63
2018-06-11T05:16:16.521Z,29.90
2018-06-11T05:18:44.103Z,29.43
2018-06-11T05:21:11.646Z,28.33
2018-06-11T05:23:39.389Z,29.73
2018-06-11T05:26:06.945Z,28.77
2018-06-11T05:28:34.541Z,30.27
2018-06-11T05:31:02.072Z,30.03
2018-06-11T05:33:29.739Z,30.23
2018-06-11T05:35:57.341Z,30.80
2018-06-11T05:38:25.448Z,30.27
2018-06-11T05:40:53.289Z,29.67
2018-06-11T05:43:20.873Z,29.37
2018-06-11T05:45:48.457Z,29.10
2018-06-11T05:48:16.034Z,30.47
2018-06-11T05:50:43.633Z,34.60
2018-06-11T05:53:11.217Z,39.27
2018-06-11T05:55:38.921Z,31.57
2018-06-11T05:58:06.501Z,31.00
2018-06-11T06:00:34.025Z,36.00
2018-06-11T06:03:01.612Z,35.00
2018-06-11T06:05:29.145Z,34.53
2018-06-11T06:07:56.726Z,35.43
2018-06-11T06:10:24.290Z,37.37
2018-06-11T06:12:51.900Z,38.47
2018-06-11T06:15:19.448Z,38.57
2018-06-11T06:17:47.009Z,41.43
2018-06-11T06:20:14.573Z,40.10
2018-06-11T06:22:42.138Z,45.10
2018-06-11T06:25:09.788Z,39.17
2018-06-11T06:27:37.368Z,37.20
2018-06-11T06:30:05.169Z,34.30
2018-06-11T06:32:32.735Z,32.93
2018-06-11T06:35:00.298Z,35.53
2018-06-11T06:37:27.888Z,37.17
2018-06-11T06:39:55.451Z,37.90
2018-06-11T06:42:23.493Z,37.20
2018-06-11T06:44:51.045Z,37.63
2018-06-11T06:47:18.713Z,38.50
2018-06-11T06:49:46.266Z,39.73
2018-06-11T06:52:13.812Z,43.60
2018-06-11T06:54:41.383Z,41.73
2018-06-11T06:57:08.925Z,45.77
2018-06-11T06:59:36.469Z,37.67
2018-06-11T07:02:04.062Z,40.40
2018-06-11T07:04:31.635Z,38.57
2018-06-11T07:06:59.198Z,35.40
2018-06-11T07:09:26.760Z,35.70
2018-06-11T07:11:54.308Z,35.63
2018-06-11T07:14:22.009Z,37.00
2018-06-11T07:16:49.717Z,35.97
2018-06-11T07:19:17.334Z,35.53
2018-06-11T07:21:44.888Z,34.67
2018-06-11T07:24:12.457Z,36.63
2018-06-11T07:26:40.040Z,36.67
2018-06-11T07:29:08.500Z,35.73
2018-06-11T07:31:36.066Z,33.13
2018-06-11T07:34:03.618Z,35.80
2018-06-11T07:36:31.217Z,35.20
2018-06-11T07:38:58.768Z,34.63
2018-06-11T07:41:26.348Z,35.20
2018-06-11T07:43:53.929Z,35.23
2018-06-11T07:46:21.432Z,46.03
2018-06-11T07:48:49.005Z,36.50
2018-06-11T07:51:16.588Z,37.53
2018-06-11T07:53:44.120Z,41.77
2018-06-11T07:56:11.706Z,38.33
2018-06-11T07:58:39.241Z,38.90
2018-06-11T08:01:06.834Z,36.97
2018-06-11T08:03:34.957Z,38.97
2018-06-11T08:06:02.542Z,38.23
2018-06-11T08:08:30.101Z,37.67
2018-06-11T08:10:57.705Z,33.40
2018-06-11T08:13:25.310Z,35.50
2018-06-11T08:15:52.827Z,36.20
2018-06-11T08:18:20.944Z,37.03
2018-06-11T08:20:48.560Z,35.43
2018-06-11T08:23:16.049Z,35.63
2018-06-11T08:25:43.594Z,36.50
2018-06-11T08:28:11.157Z,34.37
2018-06-11T08:30:38.784Z,34.17
2018-06-11T08:33:06.712Z,37.10
2018-06-11T08:35:34.297Z,32.53
2018-06-11T08:38:02.431Z,33.27
2018-06-11T08:40:30.302Z,30.90
2018-06-11T08:42:57.855Z,29.80
2018-06-11T08:45:25.421Z,29.13
2018-06-11T08:47:52.961Z,28.87
2018-06-11T08:50:20.493Z,30.23
2018-06-11T08:52:48.097Z,27.30
2018-06-11T08:55:15.641Z,26.87
2018-06-11T08:57:43.221Z,26.67
2018-06-11T09:00:10.814Z,27.33
2018-06-11T09:02:38.361Z,26.90
2018-06-11T09:05:05.908Z,24.97
2018-06-11T09:07:33.509Z,24.30
2018-06-11T09:10:01.060Z,25.83
2018-06-11T09:12:28.695Z,25.20
2018-06-11T09:14:56.212Z,25.63
2018-06-11T09:17:23.776Z,25.50
2018-06-11T09:19:51.332Z,26.53
2018-06-11T09:22:18.921Z,25.77
2018-06-11T09:24:46.510Z,24.27
2018-06-11T09:27:14.067Z,24.63
2018-06-11T09:29:41.605Z,25.40
2018-06-11T09:32:09.189Z,25.10
2018-06-11T09:34:36.761Z,24.60
2018-06-11T09:37:04.357Z,23.90
2018-06-11T09:39:32.070Z,23.17
2018-06-11T09:41:59.637Z,23.70
2018-06-11T09:44:27.164Z,23.50
2018-06-11T09:46:54.729Z,21.57
2018-06-11T09:49:22.291Z,23.17
2018-06-11T09:51:49.897Z,24.63
2018-06-11T09:54:17.433Z,24.53
2018-06-11T09:56:44.993Z,24.17
2018-06-11T09:59:12.516Z,26.03
2018-06-11T10:01:40.069Z,24.23
2018-06-11T10:04:07.613Z,24.10
2018-06-11T10:06:35.164Z,23.43
2018-06-11T10:09:03.237Z,25.40
2018-06-11T10:11:30.753Z,26.40
2018-06-11T10:13:58.308Z,26.37
2018-06-11T10:16:25.857Z,25.30
2018-06-11T10:18:53.397Z,25.23
2018-06-11T10:21:20.917Z,25.17
2018-06-11T10:23:48.480Z,25.30
2018-06-11T10:26:16.020Z,24.13
2018-06-11T10:28:43.645Z,21.53
2018-06-11T10:31:11.169Z,23.67
2018-06-11T10:33:38.773Z,21.57
2018-06-11T10:36:06.297Z,20.03
2018-06-11T10:38:34.355Z,19.90
2018-06-11T10:41:01.885Z,19.97
2018-06-11T10:43:29.461Z,16.63
2018-06-11T10:45:57.002Z,16.07
2018-06-11T10:48:24.554Z,17.60
2018-06-11T10:50:52.073Z,20.00
2018-06-11T10:53:19.608Z,19.83
2018-06-11T10:55:47.154Z,17.60
2018-06-11T10:58:14.782Z,16.40
2018-06-11T11:00:42.305Z,18.63
2018-06-11T11:03:09.853Z,14.87
2018-06-11T11:05:37.397Z,16.87
2018-06-11T11:08:04.960Z,15.47
2018-06-11T11:10:32.522Z,16.23
2018-06-11T11:13:00.077Z,16.53
2018-06-11T11:15:27.616Z,17.87
2018-06-11T11:17:55.172Z,17.37
2018-06-11T11:20:22.709Z,17.00
2018-06-11T11:22:50.233Z,15.97
2018-06-11T11:25:17.745Z,15.33
2018-06-11T11:27:45.268Z,16.23
2018-06-11T11:30:12.833Z,14.10
2018-06-11T11:32:40.381Z,14.77
2018-06-11T11:35:07.970Z,14.80
2018-06-11T11:37:35.540Z,15.67
2018-06-11T11:40:03.191Z,15.57
2018-06-11T11:42:30.685Z,13.93
2018-06-11T11:44:58.620Z,13.27
2018-06-11T11:47:26.137Z,12.80
2018-06-11T11:49:54.208Z,11.37
2018-06-11T11:52:21.845Z,11.43
2018-06-11T11:54:49.450Z,11.03
2018-06-11T11:57:17.023Z,10.60
2018-06-11T11:59:44.613Z,11.80
2018-06-11T12:02:12.138Z,10.50
2018-06-11T12:04:39.740Z,8.90
2018-06-11T12:07:07.247Z,8.23
2018-06-11T12:09:34.909Z,9.63
2018-06-11T12:12:02.450Z,9.30
2018-06-11T12:14:30.205Z,8.67
2018-06-11T12:16:57.769Z,8.20
2018-06-11T12:19:25.298Z,7.80
2018-06-11T12:21:53.714Z,8.50
2018-06-11T12:24:21.253Z,9.53
2018-06-11T12:26:48.821Z,10.07
2018-06-11T12:29:16.366Z,10.27
2018-06-11T12:31:43.950Z,8.33
2018-06-11T12:34:12.370Z,9.53
2018-06-11T12:36:40.005Z,9.33
2018-06-11T12:39:07.808Z,8.97
2018-06-11T12:41:35.478Z,9.50
2018-06-11T12:44:03.417Z,9.73
2018-06-11T12:46:30.985Z,9.47
2018-06-11T12:48:58.525Z,9.07
2018-06-11T12:51:26.087Z,8.87
2018-06-11T12:53:53.642Z,9.03
2018-06-11T12:56:21.193Z,8.07
2018-06-11T12:58:48.729Z,7.40
2018-06-11T13:01:16.701Z,8.27
2018-06-11T13:03:44.634Z,7.67
2018-06-11T13:06:12.305Z,7.73
2018-06-11T13:08:39.862Z,7.37
2018-06-11T13:11:07.388Z,8.23
2018-06-11T13:13:34.994Z,6.33
2018-06-11T13:16:02.545Z,6.57
2018-06-11T13:18:30.101Z,6.90
2018-06-11T13:20:57.764Z,7.17
2018-06-11T13:23:25.317Z,11.63
2018-06-11T13:25:52.853Z,9.90
2018-06-11T13:28:21.648Z,8.10
2018-06-11T13:30:49.225Z,7.13
2018-06-11T13:33:18.646Z,7.43
2018-06-11T13:35:46.859Z,7.37
2018-06-11T13:38:14.481Z,7.80
2018-06-11T13:40:42.045Z,7.50
2018-06-11T13:43:09.599Z,7.73
2018-06-11T13:45:40.149Z,7.23
2018-06-11T13:48:07.953Z,7.33
2018-06-11T13:50:35.488Z,7.50
2018-06-11T13:53:03.082Z,7.80
2018-06-11T13:55:30.648Z,6.57
2018-06-11T13:58:00.057Z,6.97
2018-06-11T14:00:29.357Z,7.03
2018-06-11T14:02:56.996Z,6.83
2018-06-11T14:05:24.538Z,7.03
2018-06-11T14:07:52.052Z,6.90
2018-06-11T14:10:19.874Z,6.67
2018-06-11T14:12:47.397Z,6.80
2018-06-11T14:15:14.960Z,6.40
2018-06-11T14:17:42.606Z,5.63
2018-06-11T14:20:10.190Z,6.07
2018-06-11T14:22:37.841Z,6.10
2018-06-11T14:25:05.409Z,6.23
2018-06-11T14:27:32.941Z,5.63
2018-06-11T14:30:00.498Z,6.13
2018-06-11T14:32:28.021Z,6.50
2018-06-11T14:34:55.515Z,5.10
2018-06-11T14:37:23.473Z,5.00
2018-06-11T14:39:51.041Z,4.90
2018-06-11T14:42:18.895Z,5.10
2018-06-11T14:44:46.834Z,6.10
2018-06-11T14:47:14.359Z,5.57
2018-06-11T14:49:41.931Z,6.00
2018-06-11T14:52:09.896Z,6.03
2018-06-11T14:54:37.453Z,5.93
2018-06-11T14:57:05.617Z,5.40
2018-06-11T14:59:33.192Z,5.90
2018-06-11T15:02:00.758Z,5.57
2018-06-11T15:04:29.658Z,5.40
2018-06-11T15:06:57.190Z,5.60
2018-06-11T15:09:24.824Z,5.47
2018-06-11T15:11:52.449Z,5.53
2018-06-11T15:14:19.988Z,6.00
2018-06-11T15:16:47.583Z,6.03
2018-06-11T15:19:15.118Z,5.80
2018-06-11T15:21:42.878Z,5.50
2018-06-11T15:24:10.416Z,5.80
2018-06-11T15:26:38.022Z,6.47
2018-06-11T15:29:05.725Z,6.10
2018-06-11T15:31:33.331Z,5.93
2018-06-11T15:34:00.961Z,6.00
2018-06-11T15:36:28.873Z,6.60
2018-06-11T15:38:56.417Z,5.70
2018-06-11T15:41:23.989Z,5.77
2018-06-11T15:43:51.514Z,6.03
2018-06-11T15:46:19.359Z,6.77
2018-06-11T15:49:01.896Z,6.70
2018-06-11T15:51:29.485Z,6.10
2018-06-11T15:53:57.026Z,6.50
2018-06-11T15:56:26.366Z,6.60
2018-06-11T15:58:53.881Z,6.97
2018-06-11T16:01:21.609Z,6.80
2018-06-11T16:03:49.154Z,6.73
2018-06-11T16:06:16.893Z,6.17
2018-06-11T16:08:45.196Z,6.80
2018-06-11T16:11:12.731Z,7.00
2018-06-11T16:13:40.295Z,6.93
2018-06-11T16:16:08.017Z,6.50
2018-06-11T16:18:35.638Z,6.37
2018-06-11T16:21:03.305Z,6.63
2018-06-11T16:23:30.864Z,7.20
2018-06-11T16:25:58.409Z,7.57
2018-06-11T16:28:25.968Z,7.03
2018-06-11T16:30:53.593Z,7.63
2018-06-11T16:33:21.154Z,14.40
2018-06-11T16:35:49.185Z,15.13
2018-06-11T16:38:16.736Z,9.80
2018-06-11T16:40:44.375Z,7.80
2018-06-11T16:43:11.931Z,7.30
2018-06-11T16:45:39.465Z,7.83
2018-06-11T16:48:07.061Z,9.70
2018-06-11T16:50:34.663Z,17.27
2018-06-11T16:53:02.963Z,11.20
2018-06-11T16:55:30.549Z,8.00
2018-06-11T16:57:58.185Z,9.17
2018-06-11T17:00:25.778Z,8.53
2018-06-11T17:02:54.459Z,8.40
2018-06-11T17:05:22.005Z,8.47
2018-06-11T17:07:50.837Z,7.90
2018-06-11T17:10:19.465Z,8.03
2018-06-11T17:12:47.145Z,6.97
2018-06-11T17:15:14.709Z,7.43
2018-06-11T17:17:42.285Z,7.27
2018-06-11T17:20:09.907Z,7.13
2018-06-11T17:22:37.495Z,7.00
2018-06-11T17:25:05.072Z,6.23
2018-06-11T17:27:32.622Z,6.60
2018-06-11T17:30:00.202Z,6.40
2018-06-11T17:32:27.913Z,6.00
2018-06-11T17:34:55.617Z,5.33
2018-06-11T17:37:23.155Z,22.10
2018-06-11T17:39:50.925Z,12.70
2018-06-11T17:42:18.468Z,7.57
2018-06-11T17:44:46.174Z,5.33
2018-06-11T17:47:13.695Z,5.40
2018-06-11T17:49:41.266Z,4.93
2018-06-11T17:52:08.821Z,4.40
2018-06-11T17:54:36.434Z,5.07
2018-06-11T17:57:03.985Z,4.83
2018-06-11T17:59:31.566Z,5.03
2018-06-11T18:01:59.134Z,4.60
2018-06-11T18:04:26.792Z,4.43
2018-06-11T18:06:55.360Z,4.70
2018-06-11T18:09:22.925Z,4.53
2018-06-11T18:11:50.490Z,5.00
2018-06-11T18:14:18.090Z,4.83
2018-06-11T18:16:45.693Z,4.70
2018-06-11T18:19:13.270Z,5.20
2018-06-11T18:21:41.245Z,5.53
2018-06-11T18:24:08.773Z,5.23
2018-06-11T18:26:37.065Z,5.33
2018-06-11T18:29:04.654Z,17.93
2018-06-11T18:31:36.285Z,20.73
2018-06-11T18:34:04.009Z,29.17
2018-06-11T18:36:31.550Z,17.87
2018-06-11T18:38:59.063Z,8.87
2018-06-11T18:41:26.660Z,8.37
2018-06-11T18:43:54.353Z,7.50
2018-06-11T18:46:21.929Z,7.23
2018-06-11T18:48:49.731Z,7.47
2018-06-11T18:51:17.392Z,7.50
2018-06-11T18:53:45.021Z,7.53
2018-06-11T18:56:12.577Z,7.87
2018-06-11T18:58:40.174Z,6.90
2018-06-11T19:01:07.764Z,7.27
2018-06-11T19:03:39.249Z,7.77
2018-06-11T19:06:06.825Z,7.33
2018-06-11T19:08:34.353Z,7.80
2018-06-11T19:11:01.966Z,7.77
2018-06-11T19:13:30.489Z,7.30
2018-06-11T19:15:58.076Z,7.63
2018-06-11T19:18:25.638Z,7.20
2018-06-11T19:20:53.200Z,6.80
2018-06-11T19:23:20.856Z,7.33
2018-06-11T19:25:48.401Z,6.90
2018-06-11T19:28:15.934Z,7.70
2018-06-11T19:30:43.991Z,7.87
2018-06-11T19:33:11.529Z,7.90
2018-06-11T19:35:39.047Z,7.37
2018-06-11T19:38:07.489Z,7.73
2018-06-11T19:40:35.022Z,7.73
2018-06-11T19:43:02.689Z,7.57
2018-06-11T19:45:30.329Z,7.60
2018-06-11T19:47:58.017Z,8.10
2018-06-11T19:50:26.074Z,31.23
2018-06-11T19:52:53.605Z,161.47
2018-06-11T19:55:21.130Z,18.87
2018-06-11T19:57:48.685Z,9.37
2018-06-11T20:00:16.261Z,10.33
2018-06-11T20:02:43.809Z,22.63
2018-06-11T20:05:11.384Z,15.10
2018-06-11T20:07:39.337Z,10.03
2018-06-11T20:10:06.905Z,9.23
2018-06-11T20:12:34.469Z,8.63
2018-06-11T20:15:02.129Z,9.03
2018-06-11T20:17:30.621Z,9.40
2018-06-11T20:19:58.229Z,9.77
2018-06-11T20:22:25.962Z,10.20
2018-06-11T20:24:53.482Z,10.70
2018-06-11T20:27:21.068Z,10.37
2018-06-11T20:29:48.977Z,12.10
2018-06-11T20:32:20.177Z,12.13
2018-06-11T20:34:48.015Z,12.63
2018-06-11T20:37:15.893Z,12.20
2018-06-11T20:39:43.475Z,11.63
2018-06-11T20:42:11.032Z,12.47
2018-06-11T20:44:38.568Z,11.63
2018-06-11T20:47:06.157Z,11.40
2018-06-11T20:49:33.720Z,11.43
2018-06-11T20:52:01.290Z,11.50
2018-06-11T20:54:28.826Z,11.63
2018-06-11T20:56:56.461Z,12.00
2018-06-11T20:59:24.041Z,12.03
2018-06-11T21:01:51.595Z,12.10
2018-06-11T21:04:19.257Z,12.13
2018-06-11T21:06:46.825Z,12.40
2018-06-11T21:09:14.678Z,12.47
2018-06-11T21:11:42.305Z,11.17
2018-06-11T21:14:09.987Z,11.60
2018-06-11T21:16:38.314Z,12.20
2018-06-11T21:19:05.997Z,11.33
2018-06-11T21:21:33.977Z,11.37
2018-06-11T21:24:01.569Z,11.67
2018-06-11T21:26:29.119Z,11.57
2018-06-11T21:28:59.610Z,12.20
2018-06-11T21:31:27.354Z,13.03
2018-06-11T21:33:55.051Z,11.77
2018-06-11T21:36:22.594Z,13.03
2018-06-11T21:38:50.274Z,12.50
2018-06-11T21:41:17.789Z,12.93
2018-06-11T21:43:45.328Z,13.33
2018-06-11T21:46:12.898Z,13.30
2018-06-11T21:48:40.477Z,13.63
2018-06-11T21:51:07.998Z,13.87
2018-06-11T21:53:35.565Z,13.83
2018-06-11T21:56:03.202Z,13.73
2018-06-11T21:58:30.782Z,13.97
2018-06-11T22:00:58.427Z,14.70
2018-06-11T22:03:26.431Z,14.53
2018-06-11T22:05:53.957Z,14.03
2018-06-11T22:08:21.501Z,14.37
2018-06-11T22:10:49.427Z,14.80
2018-06-11T22:13:17.094Z,14.63
2018-06-11T22:15:44.633Z,14.03
2018-06-11T22:18:12.198Z,14.73
2018-06-11T22:20:39.753Z,14.50
2018-06-11T22:23:07.313Z,15.17
2018-06-11T22:25:34.890Z,15.13
2018-06-11T22:28:02.605Z,16.23
2018-06-11T22:30:30.512Z,16.13
2018-06-11T22:32:57.997Z,16.63
2018-06-11T22:35:25.541Z,15.97
2018-06-11T22:37:53.105Z,15.90
2018-06-11T22:40:20.649Z,16.93
2018-06-11T22:42:48.194Z,15.90
2018-06-11T22:45:15.765Z,16.83
2018-06-11T22:47:43.309Z,16.50
2018-06-11T22:50:10.853Z,16.80
2018-06-11T22:52:38.361Z,16.77
2018-06-11T22:55:05.929Z,16.27
2018-06-11T22:57:33.486Z,17.83
2018-06-11T23:00:01.046Z,16.73
2018-06-11T23:02:28.661Z,16.63
2018-06-11T23:04:56.230Z,16.13
2018-06-11T23:07:23.765Z,17.30
2018-06-11T23:09:51.317Z,16.63
2018-06-11T23:12:18.838Z,16.73
2018-06-11T23:14:46.398Z,16.83
2018-06-11T23:17:13.978Z,17.57
2018-06-11T23:19:41.521Z,17.27
2018-06-11T23:22:09.037Z,17.30
2018-06-11T23:24:36.590Z,17.43
2018-06-11T23:27:04.159Z,17.70
2018-06-11T23:29:31.709Z,17.33
2018-06-11T23:31:59.233Z,16.97
2018-06-11T23:34:26.809Z,17.70
2018-06-11T23:36:54.356Z,16.40
2018-06-11T23:39:21.946Z,16.80
2018-06-11T23:41:49.469Z,17.43
2018-06-11T23:44:17.070Z,17.00
2018-06-11T23:46:44.961Z,16.60
2018-06-11T23:49:13.321Z,17.87
2018-06-11T23:51:40.846Z,17.20
2018-06-11T23:54:08.456Z,16.63
2018-06-11T23:56:35.970Z,16.73
2018-06-11T23:59:04.432Z,17.07
